sensor_id;sensor_type;location;lat;lon;timestamp;P1;durP1;ratioP1;P2;durP2;ratioP2
50649;SDS011;36621;60.058;30.346;2023-01-04T06:05:51;7.68;;;4.45;;
50649;SDS011;36621;60.058;30.346;2023-01-04T06:14:47;8.57;;;5.10;;
50649;SDS011;36621;60.058;30.346;2023-01-04T06:22:24;4.78;;;2.97;;
50649;SDS011;36621;60.058;30.346;2023-01-04T06:30:00;5.25;;;3.40;;
50649;SDS011;36621;60.058;30.346;2023-01-04T06:46:22;4.18;;;3.05;;
50649;SDS011;36621;60.058;30.346;2023-01-04T06:53:55;4.35;;;3.35;;
50649;SDS011;36621;60.058;30.346;2023-01-04T07:19:17;4.15;;;3.08;;
50649;SDS011;36621;60.058;30.346;2023-01-04T07:27:52;4.13;;;3.05;;
50649;SDS011;36621;60.058;30.346;2023-01-04T08:22:31;7.78;;;4.53;;
50649;SDS011;36621;60.058;30.346;2023-01-04T09:18:05;6.78;;;4.15;;
50649;SDS011;36621;60.058;30.346;2023-01-04T09:25:47;7.38;;;4.00;;
50649;SDS011;36621;60.058;30.346;2023-01-04T09:52:14;7.70;;;3.67;;
50649;SDS011;36621;60.058;30.346;2023-01-04T10:00:23;5.50;;;3.40;;
50649;SDS011;36621;60.058;30.346;2023-01-04T10:08:46;5.85;;;3.45;;
50649;SDS011;36621;60.058;30.346;2023-01-04T10:16:38;5.43;;;3.70;;
50649;SDS011;36621;60.058;30.346;2023-01-04T10:25:30;7.78;;;3.20;;
50649;SDS011;36621;60.058;30.346;2023-01-04T10:33:17;5.78;;;3.92;;
50649;SDS011;36621;60.058;30.346;2023-01-04T10:41:08;5.65;;;3.60;;
50649;SDS011;36621;60.058;30.346;2023-01-04T10:48:58;7.13;;;4.70;;
50649;SDS011;36621;60.058;30.346;2023-01-04T10:57:10;6.35;;;3.80;;
50649;SDS011;36621;60.058;30.346;2023-01-04T11:04:51;7.47;;;3.80;;
50649;SDS011;36621;60.058;30.346;2023-01-04T11:22:49;11.50;;;4.72;;
50649;SDS011;36621;60.058;30.346;2023-01-04T11:31:15;5.93;;;3.55;;
50649;SDS011;36621;60.058;30.346;2023-01-04T11:39:17;7.72;;;3.60;;
50649;SDS011;36621;60.058;30.346;2023-01-04T11:47:04;9.93;;;4.20;;
50649;SDS011;36621;60.058;30.346;2023-01-04T12:02:48;5.70;;;3.58;;
50649;SDS011;36621;60.058;30.346;2023-01-04T12:10:22;9.48;;;4.30;;
50649;SDS011;36621;60.058;30.346;2023-01-04T12:18:00;8.30;;;4.00;;
50649;SDS011;36621;60.058;30.346;2023-01-04T12:25:45;6.88;;;3.92;;
50649;SDS011;36621;60.058;30.346;2023-01-04T12:33:37;5.95;;;3.00;;
50649;SDS011;36621;60.058;30.346;2023-01-04T12:41:11;11.63;;;7.35;;
50649;SDS011;36621;60.058;30.346;2023-01-04T12:48:46;7.57;;;5.13;;
50649;SDS011;36621;60.058;30.346;2023-01-04T13:04:43;13.85;;;7.20;;
50649;SDS011;36621;60.058;30.346;2023-01-04T13:12:19;13.80;;;6.57;;
50649;SDS011;36621;60.058;30.346;2023-01-04T13:20:15;10.10;;;5.18;;
50649;SDS011;36621;60.058;30.346;2023-01-04T13:27:53;10.93;;;6.45;;
50649;SDS011;36621;60.058;30.346;2023-01-04T13:35:31;18.35;;;8.13;;
50649;SDS011;36621;60.058;30.346;2023-01-04T13:43:10;16.23;;;9.80;;
50649;SDS011;36621;60.058;30.346;2023-01-04T13:51:11;20.15;;;10.32;;
50649;SDS011;36621;60.058;30.346;2023-01-04T13:58:46;18.15;;;9.35;;
50649;SDS011;36621;60.058;30.346;2023-01-04T14:06:27;14.05;;;6.28;;
50649;SDS011;36621;60.058;30.346;2023-01-04T14:14:02;15.68;;;8.60;;
50649;SDS011;36621;60.058;30.346;2023-01-04T14:21:44;18.30;;;8.50;;
50649;SDS011;36621;60.058;30.346;2023-01-04T14:29:19;8.98;;;5.40;;
50649;SDS011;36621;60.058;30.346;2023-01-04T14:37:00;17.45;;;9.07;;
50649;SDS011;36621;60.058;30.346;2023-01-04T14:44:35;10.93;;;6.15;;
50649;SDS011;36621;60.058;30.346;2023-01-04T14:52:23;20.45;;;10.35;;
50649;SDS011;36621;60.058;30.346;2023-01-04T15:00:00;21.17;;;9.35;;
50649;SDS011;36621;60.058;30.346;2023-01-04T15:07:43;10.70;;;5.03;;
50649;SDS011;36621;60.058;30.346;2023-01-04T15:15:22;7.70;;;3.90;;
50649;SDS011;36621;60.058;30.346;2023-01-04T15:23:02;11.20;;;5.85;;
50649;SDS011;36621;60.058;30.346;2023-01-04T15:30:34;12.65;;;6.22;;
50649;SDS011;36621;60.058;30.346;2023-01-04T15:38:11;11.48;;;4.65;;
50649;SDS011;36621;60.058;30.346;2023-01-04T15:45:52;16.13;;;6.82;;
50649;SDS011;36621;60.058;30.346;2023-01-04T16:02:17;10.90;;;6.10;;
50649;SDS011;36621;60.058;30.346;2023-01-04T16:10:18;15.23;;;7.20;;
50649;SDS011;36621;60.058;30.346;2023-01-04T16:17:50;15.50;;;7.00;;
50649;SDS011;36621;60.058;30.346;2023-01-04T16:33:50;13.63;;;6.10;;
50649;SDS011;36621;60.058;30.346;2023-01-04T16:41:32;14.18;;;5.53;;
50649;SDS011;36621;60.058;30.346;2023-01-04T17:06:17;12.13;;;5.28;;
50649;SDS011;36621;60.058;30.346;2023-01-04T17:14:37;13.23;;;5.47;;
50649;SDS011;36621;60.058;30.346;2023-01-04T17:22:22;8.40;;;4.05;;
50649;SDS011;36621;60.058;30.346;2023-01-04T17:30:10;10.20;;;5.47;;
50649;SDS011;36621;60.058;30.346;2023-01-04T17:37:43;10.23;;;4.85;;
50649;SDS011;36621;60.058;30.346;2023-01-04T17:45:39;11.82;;;5.35;;
50649;SDS011;36621;60.058;30.346;2023-01-04T17:53:52;10.40;;;5.38;;
50649;SDS011;36621;60.058;30.346;2023-01-04T18:10:33;17.63;;;7.35;;
50649;SDS011;36621;60.058;30.346;2023-01-04T18:18:10;9.57;;;5.53;;
50649;SDS011;36621;60.058;30.346;2023-01-04T18:26:12;11.13;;;6.20;;
50649;SDS011;36621;60.058;30.346;2023-01-04T18:34:29;12.52;;;5.30;;
50649;SDS011;36621;60.058;30.346;2023-01-04T18:51:21;8.85;;;4.60;;
50649;SDS011;36621;60.058;30.346;2023-01-04T19:06:45;7.85;;;3.88;;
50649;SDS011;36621;60.058;30.346;2023-01-04T19:14:27;15.38;;;6.43;;
50649;SDS011;36621;60.058;30.346;2023-01-04T20:17:09;10.82;;;5.68;;
50649;SDS011;36621;60.058;30.346;2023-01-04T20:24:55;9.40;;;5.18;;
50649;SDS011;36621;60.058;30.346;2023-01-04T20:33:22;11.57;;;5.68;;
50649;SDS011;36621;60.058;30.346;2023-01-04T21:53:23;11.23;;;5.93;;
50649;SDS011;36621;60.058;30.346;2023-01-04T22:00:56;13.55;;;5.22;;
50649;SDS011;36621;60.058;30.346;2023-01-04T22:08:36;8.07;;;4.53;;
50649;SDS011;36621;60.058;30.346;2023-01-04T22:16:58;13.60;;;4.88;;
50649;SDS011;36621;60.058;30.346;2023-01-04T22:25:08;11.35;;;4.97;;
50649;SDS011;36621;60.058;30.346;2023-01-04T22:33:14;14.38;;;5.68;;
50649;SDS011;36621;60.058;30.346;2023-01-04T22:41:56;15.95;;;7.35;;
50649;SDS011;36621;60.058;30.346;2023-01-04T22:49:58;16.85;;;8.02;;
50649;SDS011;36621;60.058;30.346;2023-01-04T22:58:23;13.88;;;5.47;;
50649;SDS011;36621;60.058;30.346;2023-01-04T23:06:34;7.90;;;4.80;;
50649;SDS011;36621;60.058;30.346;2023-01-04T23:14:39;13.02;;;4.90;;
50649;SDS011;36621;60.058;30.346;2023-01-04T23:22:29;14.13;;;6.47;;
50649;SDS011;36621;60.058;30.346;2023-01-04T23:30:05;19.20;;;8.90;;
50649;SDS011;36621;60.058;30.346;2023-01-04T23:37:39;14.63;;;6.68;;
50649;SDS011;36621;60.058;30.346;2023-01-04T23:45:26;13.98;;;6.95;;
50649;SDS011;36621;60.058;30.346;2023-01-04T23:53:40;10.32;;;5.30;;
